Current Weather

Ronald Reagan Washington Ntl

Washington, Virginia (KDCA)

Report from: Sunday, February 5, 2023 11:52 PM EST
Current time: Monday, February 6, 2023 12:53 AM EST

Nearby weather
Weather history
Weather forecast

Temperature6.1°C (43.0°F)
Wind chill3.4°C (38.2°F)
Dew point2.8°C (37.0°F)
Winds 7 kts (3.6 m/s, 8.1 mph) South (170°)
Visibility10 mi. (16.1 km)
Clouds Few clouds 15,000 ft. (4,572 m)
Ceiling: Broken clouds 25,000 ft. (7,620 m)
Altimeter30.01 in.Hg (1016 mB)
Relative humidity79 %
Density altitude-1,064 ft. (-324 m)
Sea-level pressure101.6 kPa (1016 mB, 30.01 in.Hg)
Max temp last 24 hours15.0°C (59.0°F)
Min temp last 24 hours0.6°C (33.1°F)
Remarks Automated weather observing station with precipitation discriminator
Flight conditions Visual Meteorological Conditions
Raw dataKDCA 060452Z 17007KT 10SM FEW150 BKN250 06/03 A3001 RMK AO2 SLP163 T00610028 401500006
An error has occurred. This application may no longer respond until reloaded. Reload 🗙